sensor_id;sensor_type;location;lat;lon;timestamp;temperature;humidity
7844;DHT22;3967;48.702;9.326;2022-09-12T00:01:36;15.70;99.90
7844;DHT22;3967;48.702;9.326;2022-09-12T00:04:03;15.60;99.90
7844;DHT22;3967;48.702;9.326;2022-09-12T00:06:32;15.50;99.90
7844;DHT22;3967;48.702;9.326;2022-09-12T00:09:04;15.60;99.90
7844;DHT22;3967;48.702;9.326;2022-09-12T00:11:38;15.60;99.90
7844;DHT22;3967;48.702;9.326;2022-09-12T00:14:08;15.70;99.90
7844;DHT22;3967;48.702;9.326;2022-09-12T00:16:35;15.70;99.70
7844;DHT22;3967;48.702;9.326;2022-09-12T00:19:04;15.70;99.60
7844;DHT22;3967;48.702;9.326;2022-09-12T00:21:32;15.60;99.60
7844;DHT22;3967;48.702;9.326;2022-09-12T00:23:59;15.50;99.60
7844;DHT22;3967;48.702;9.326;2022-09-12T00:26:26;15.50;99.90
7844;DHT22;3967;48.702;9.326;2022-09-12T00:28:54;15.40;99.90
7844;DHT22;3967;48.702;9.326;2022-09-12T00:31:22;15.40;99.90
7844;DHT22;3967;48.702;9.326;2022-09-12T00:33:51;15.50;99.90
7844;DHT22;3967;48.702;9.326;2022-09-12T00:36:21;15.50;99.60
7844;DHT22;3967;48.702;9.326;2022-09-12T00:38:50;15.50;99.20
7844;DHT22;3967;48.702;9.326;2022-09-12T00:41:22;15.50;99.40
7844;DHT22;3967;48.702;9.326;2022-09-12T00:43:59;15.50;99.60
7844;DHT22;3967;48.702;9.326;2022-09-12T00:49:10;15.40;99.80
7844;DHT22;3967;48.702;9.326;2022-09-12T00:51:42;15.30;99.90
7844;DHT22;3967;48.702;9.326;2022-09-12T00:54:13;15.20;99.90
7844;DHT22;3967;48.702;9.326;2022-09-12T00:56:43;15.30;99.90
7844;DHT22;3967;48.702;9.326;2022-09-12T00:59:23;15.30;99.90
7844;DHT22;3967;48.702;9.326;2022-09-12T01:01:51;15.30;99.90
7844;DHT22;3967;48.702;9.326;2022-09-12T01:04:21;15.20;99.90
7844;DHT22;3967;48.702;9.326;2022-09-12T01:06:49;15.00;99.90
7844;DHT22;3967;48.702;9.326;2022-09-12T01:09:18;15.10;99.90
7844;DHT22;3967;48.702;9.326;2022-09-12T01:11:47;15.10;99.90
7844;DHT22;3967;48.702;9.326;2022-09-12T01:14:16;15.10;99.90
7844;DHT22;3967;48.702;9.326;2022-09-12T01:16:44;15.10;99.90
7844;DHT22;3967;48.702;9.326;2022-09-12T01:31:00;15.10;99.70
7844;DHT22;3967;48.702;9.326;2022-09-12T01:33:59;15.10;99.80
7844;DHT22;3967;48.702;9.326;2022-09-12T01:36:35;15.10;99.90
7844;DHT22;3967;48.702;9.326;2022-09-12T01:39:13;15.10;99.90
7844;DHT22;3967;48.702;9.326;2022-09-12T01:42:01;15.00;99.80
7844;DHT22;3967;48.702;9.326;2022-09-12T01:44:38;15.00;99.90
7844;DHT22;3967;48.702;9.326;2022-09-12T01:49:59;14.90;99.80
7844;DHT22;3967;48.702;9.326;2022-09-12T01:55:15;14.90;99.90
7844;DHT22;3967;48.702;9.326;2022-09-12T01:57:56;14.90;99.90
7844;DHT22;3967;48.702;9.326;2022-09-12T02:00:24;14.80;99.90
7844;DHT22;3967;48.702;9.326;2022-09-12T02:05:30;14.70;99.90
7844;DHT22;3967;48.702;9.326;2022-09-12T02:08:22;14.60;99.90
7844;DHT22;3967;48.702;9.326;2022-09-12T02:10:55;14.50;99.90
7844;DHT22;3967;48.702;9.326;2022-09-12T02:13:37;14.40;99.90
7844;DHT22;3967;48.702;9.326;2022-09-12T02:16:09;14.60;99.90
7844;DHT22;3967;48.702;9.326;2022-09-12T02:18:39;14.60;99.90
7844;DHT22;3967;48.702;9.326;2022-09-12T02:21:07;14.60;99.90
7844;DHT22;3967;48.702;9.326;2022-09-12T02:23:38;14.60;99.90
7844;DHT22;3967;48.702;9.326;2022-09-12T02:26:11;14.60;99.90
7844;DHT22;3967;48.702;9.326;2022-09-12T02:28:42;14.40;99.90
7844;DHT22;3967;48.702;9.326;2022-09-12T02:33:53;14.00;99.90
7844;DHT22;3967;48.702;9.326;2022-09-12T02:38:59;14.10;99.90
7844;DHT22;3967;48.702;9.326;2022-09-12T02:41:26;14.10;99.90
7844;DHT22;3967;48.702;9.326;2022-09-12T02:43:53;14.20;99.90
7844;DHT22;3967;48.702;9.326;2022-09-12T02:46:47;14.10;99.90
7844;DHT22;3967;48.702;9.326;2022-09-12T02:49:15;14.10;99.90
7844;DHT22;3967;48.702;9.326;2022-09-12T02:51:42;14.10;99.90
7844;DHT22;3967;48.702;9.326;2022-09-12T02:54:10;14.00;99.90
7844;DHT22;3967;48.702;9.326;2022-09-12T02:56:41;14.00;99.90
7844;DHT22;3967;48.702;9.326;2022-09-12T02:59:11;14.00;99.90
7844;DHT22;3967;48.702;9.326;2022-09-12T03:01:56;14.00;99.90
7844;DHT22;3967;48.702;9.326;2022-09-12T03:10:05;13.90;99.90
7844;DHT22;3967;48.702;9.326;2022-09-12T03:15:36;13.60;99.90
7844;DHT22;3967;48.702;9.326;2022-09-12T03:26:39;13.80;99.90
7844;DHT22;3967;48.702;9.326;2022-09-12T03:29:10;13.70;99.90
7844;DHT22;3967;48.702;9.326;2022-09-12T03:31:47;13.80;99.90
7844;DHT22;3967;48.702;9.326;2022-09-12T03:34:14;13.80;99.90
7844;DHT22;3967;48.702;9.326;2022-09-12T03:36:41;13.80;99.90
7844;DHT22;3967;48.702;9.326;2022-09-12T03:39:07;13.80;99.90
7844;DHT22;3967;48.702;9.326;2022-09-12T03:41:34;13.80;99.70
7844;DHT22;3967;48.702;9.326;2022-09-12T03:44:01;13.80;99.60
7844;DHT22;3967;48.702;9.326;2022-09-12T03:46:28;13.80;99.50
7844;DHT22;3967;48.702;9.326;2022-09-12T03:48:55;13.70;99.60
7844;DHT22;3967;48.702;9.326;2022-09-12T03:51:22;13.70;99.80
7844;DHT22;3967;48.702;9.326;2022-09-12T03:53:48;13.60;99.90
7844;DHT22;3967;48.702;9.326;2022-09-12T03:56:15;13.60;99.90
7844;DHT22;3967;48.702;9.326;2022-09-12T03:58:42;13.50;99.90
7844;DHT22;3967;48.702;9.326;2022-09-12T04:01:13;13.60;99.90
7844;DHT22;3967;48.702;9.326;2022-09-12T04:03:42;13.60;99.90
7844;DHT22;3967;48.702;9.326;2022-09-12T04:06:11;13.50;99.90
7844;DHT22;3967;48.702;9.326;2022-09-12T04:08:38;13.40;99.90
7844;DHT22;3967;48.702;9.326;2022-09-12T04:11:10;13.50;99.90
7844;DHT22;3967;48.702;9.326;2022-09-12T04:13:38;13.50;99.90
7844;DHT22;3967;48.702;9.326;2022-09-12T04:16:05;13.60;99.80
7844;DHT22;3967;48.702;9.326;2022-09-12T04:18:33;13.50;99.80
7844;DHT22;3967;48.702;9.326;2022-09-12T04:21:12;13.50;99.70
7844;DHT22;3967;48.702;9.326;2022-09-12T04:23:39;13.50;99.60
7844;DHT22;3967;48.702;9.326;2022-09-12T04:26:06;13.40;99.80
7844;DHT22;3967;48.702;9.326;2022-09-12T04:28:34;13.30;99.90
7844;DHT22;3967;48.702;9.326;2022-09-12T04:31:07;13.10;99.90
7844;DHT22;3967;48.702;9.326;2022-09-12T04:33:35;13.00;99.90
7844;DHT22;3967;48.702;9.326;2022-09-12T04:36:07;13.00;99.90
7844;DHT22;3967;48.702;9.326;2022-09-12T04:38:35;13.00;99.90
7844;DHT22;3967;48.702;9.326;2022-09-12T04:41:28;13.00;99.90
7844;DHT22;3967;48.702;9.326;2022-09-12T04:43:58;13.00;99.90
7844;DHT22;3967;48.702;9.326;2022-09-12T04:46:32;13.00;99.90
7844;DHT22;3967;48.702;9.326;2022-09-12T04:48:59;12.90;99.90
7844;DHT22;3967;48.702;9.326;2022-09-12T04:51:29;12.90;99.90
7844;DHT22;3967;48.702;9.326;2022-09-12T04:53:58;12.90;99.90
7844;DHT22;3967;48.702;9.326;2022-09-12T04:56:26;12.80;99.90
7844;DHT22;3967;48.702;9.326;2022-09-12T04:58:55;12.80;99.90
7844;DHT22;3967;48.702;9.326;2022-09-12T05:01:22;12.90;99.90
7844;DHT22;3967;48.702;9.326;2022-09-12T05:03:50;13.00;99.90
7844;DHT22;3967;48.702;9.326;2022-09-12T05:06:19;12.90;99.90
7844;DHT22;3967;48.702;9.326;2022-09-12T05:08:46;12.70;99.90
7844;DHT22;3967;48.702;9.326;2022-09-12T05:11:19;12.60;99.90
7844;DHT22;3967;48.702;9.326;2022-09-12T05:13:52;12.50;99.90
7844;DHT22;3967;48.702;9.326;2022-09-12T05:16:20;12.50;99.90
7844;DHT22;3967;48.702;9.326;2022-09-12T05:18:48;12.60;99.90
7844;DHT22;3967;48.702;9.326;2022-09-12T05:21:18;12.50;99.90
7844;DHT22;3967;48.702;9.326;2022-09-12T05:23:45;12.40;99.90
7844;DHT22;3967;48.702;9.326;2022-09-12T05:26:16;12.30;99.90
7844;DHT22;3967;48.702;9.326;2022-09-12T05:28:43;12.40;99.90
7844;DHT22;3967;48.702;9.326;2022-09-12T05:31:15;12.40;99.90
7844;DHT22;3967;48.702;9.326;2022-09-12T05:33:43;12.30;99.90
7844;DHT22;3967;48.702;9.326;2022-09-12T05:36:12;12.20;99.90
7844;DHT22;3967;48.702;9.326;2022-09-12T05:38:39;12.30;99.90
7844;DHT22;3967;48.702;9.326;2022-09-12T05:41:07;12.30;99.90
7844;DHT22;3967;48.702;9.326;2022-09-12T05:43:42;12.40;99.90
7844;DHT22;3967;48.702;9.326;2022-09-12T05:46:11;12.20;99.90
7844;DHT22;3967;48.702;9.326;2022-09-12T05:48:40;12.10;99.90
7844;DHT22;3967;48.702;9.326;2022-09-12T05:51:12;12.20;99.90
7844;DHT22;3967;48.702;9.326;2022-09-12T05:53:40;12.40;99.90
7844;DHT22;3967;48.702;9.326;2022-09-12T05:56:11;12.30;99.90
7844;DHT22;3967;48.702;9.326;2022-09-12T05:58:41;12.50;99.90
7844;DHT22;3967;48.702;9.326;2022-09-12T06:01:11;12.50;99.90
7844;DHT22;3967;48.702;9.326;2022-09-12T06:03:58;12.50;99.90
7844;DHT22;3967;48.702;9.326;2022-09-12T06:06:29;12.40;99.90
7844;DHT22;3967;48.702;9.326;2022-09-12T06:08:58;12.40;99.90
7844;DHT22;3967;48.702;9.326;2022-09-12T06:11:27;12.40;99.90
7844;DHT22;3967;48.702;9.326;2022-09-12T06:13:55;12.40;99.90
7844;DHT22;3967;48.702;9.326;2022-09-12T06:16:32;12.40;99.90
7844;DHT22;3967;48.702;9.326;2022-09-12T06:19:10;12.40;99.90
7844;DHT22;3967;48.702;9.326;2022-09-12T06:21:38;12.40;99.90
7844;DHT22;3967;48.702;9.326;2022-09-12T06:24:05;12.40;99.90
7844;DHT22;3967;48.702;9.326;2022-09-12T06:26:33;12.40;99.90
7844;DHT22;3967;48.702;9.326;2022-09-12T06:29:00;12.40;99.90
7844;DHT22;3967;48.702;9.326;2022-09-12T06:31:30;12.60;99.90
7844;DHT22;3967;48.702;9.326;2022-09-12T06:34:02;12.70;99.90
7844;DHT22;3967;48.702;9.326;2022-09-12T06:36:36;12.60;99.90
7844;DHT22;3967;48.702;9.326;2022-09-12T06:39:05;12.70;99.90
7844;DHT22;3967;48.702;9.326;2022-09-12T06:41:33;12.60;99.90
7844;DHT22;3967;48.702;9.326;2022-09-12T06:44:00;12.60;99.90
7844;DHT22;3967;48.702;9.326;2022-09-12T06:46:27;12.60;99.90
7844;DHT22;3967;48.702;9.326;2022-09-12T06:48:58;12.80;99.90
7844;DHT22;3967;48.702;9.326;2022-09-12T06:51:27;12.90;99.90
7844;DHT22;3967;48.702;9.326;2022-09-12T06:53:55;12.90;99.90
7844;DHT22;3967;48.702;9.326;2022-09-12T06:56:25;13.00;99.90
7844;DHT22;3967;48.702;9.326;2022-09-12T06:58:52;12.90;99.90
7844;DHT22;3967;48.702;9.326;2022-09-12T07:01:28;13.00;99.90
7844;DHT22;3967;48.702;9.326;2022-09-12T07:04:01;13.10;99.90
7844;DHT22;3967;48.702;9.326;2022-09-12T07:06:33;13.10;99.90
7844;DHT22;3967;48.702;9.326;2022-09-12T07:09:03;13.20;99.90
7844;DHT22;3967;48.702;9.326;2022-09-12T07:11:32;13.40;99.90
7844;DHT22;3967;48.702;9.326;2022-09-12T07:14:00;13.50;99.90
7844;DHT22;3967;48.702;9.326;2022-09-12T07:16:27;13.60;99.90
7844;DHT22;3967;48.702;9.326;2022-09-12T07:19:00;13.60;99.90
7844;DHT22;3967;48.702;9.326;2022-09-12T07:21:27;13.80;99.90
7844;DHT22;3967;48.702;9.326;2022-09-12T07:23:55;13.90;99.90
7844;DHT22;3967;48.702;9.326;2022-09-12T07:26:25;14.00;99.90
7844;DHT22;3967;48.702;9.326;2022-09-12T07:28:53;14.20;99.90
7844;DHT22;3967;48.702;9.326;2022-09-12T07:31:22;14.30;99.90
7844;DHT22;3967;48.702;9.326;2022-09-12T07:33:50;14.50;99.90
7844;DHT22;3967;48.702;9.326;2022-09-12T07:36:22;14.50;99.90
7844;DHT22;3967;48.702;9.326;2022-09-12T07:38:55;14.70;99.90
7844;DHT22;3967;48.702;9.326;2022-09-12T07:41:30;14.70;99.90
7844;DHT22;3967;48.702;9.326;2022-09-12T07:44:00;14.90;99.90
7844;DHT22;3967;48.702;9.326;2022-09-12T07:46:29;15.10;99.90
7844;DHT22;3967;48.702;9.326;2022-09-12T07:48:58;15.10;99.90
7844;DHT22;3967;48.702;9.326;2022-09-12T07:51:26;15.20;99.90
7844;DHT22;3967;48.702;9.326;2022-09-12T07:53:53;15.60;99.90
7844;DHT22;3967;48.702;9.326;2022-09-12T07:56:21;15.90;99.90
7844;DHT22;3967;48.702;9.326;2022-09-12T07:58:55;15.90;99.90
7844;DHT22;3967;48.702;9.326;2022-09-12T08:01:22;16.00;99.90
7844;DHT22;3967;48.702;9.326;2022-09-12T08:03:53;16.20;99.90
7844;DHT22;3967;48.702;9.326;2022-09-12T08:06:21;16.40;99.90
7844;DHT22;3967;48.702;9.326;2022-09-12T08:08:51;16.80;99.90
7844;DHT22;3967;48.702;9.326;2022-09-12T08:11:19;16.80;99.90
7844;DHT22;3967;48.702;9.326;2022-09-12T08:13:47;16.70;99.90
7844;DHT22;3967;48.702;9.326;2022-09-12T08:16:22;16.90;99.90
7844;DHT22;3967;48.702;9.326;2022-09-12T08:18:49;17.20;99.90
7844;DHT22;3967;48.702;9.326;2022-09-12T08:21:24;17.40;99.90
7844;DHT22;3967;48.702;9.326;2022-09-12T08:23:54;17.40;99.90
7844;DHT22;3967;48.702;9.326;2022-09-12T08:26:21;17.70;99.90
7844;DHT22;3967;48.702;9.326;2022-09-12T08:28:49;17.90;98.80
7844;DHT22;3967;48.702;9.326;2022-09-12T08:31:17;18.00;98.60
7844;DHT22;3967;48.702;9.326;2022-09-12T08:33:44;18.20;98.20
7844;DHT22;3967;48.702;9.326;2022-09-12T08:36:23;18.30;97.60
7844;DHT22;3967;48.702;9.326;2022-09-12T08:38:53;18.30;97.00
7844;DHT22;3967;48.702;9.326;2022-09-12T08:47:35;18.70;95.80
7844;DHT22;3967;48.702;9.326;2022-09-12T08:53:01;19.00;95.60
7844;DHT22;3967;48.702;9.326;2022-09-12T08:55:52;19.10;93.00
7844;DHT22;3967;48.702;9.326;2022-09-12T08:58:26;19.20;93.30
7844;DHT22;3967;48.702;9.326;2022-09-12T09:17:28;20.20;92.90
7844;DHT22;3967;48.702;9.326;2022-09-12T09:20:11;20.30;93.20
7844;DHT22;3967;48.702;9.326;2022-09-12T09:22:56;20.30;91.50
7844;DHT22;3967;48.702;9.326;2022-09-12T09:26:05;20.40;92.00
7844;DHT22;3967;48.702;9.326;2022-09-12T09:28:48;20.70;91.30
7844;DHT22;3967;48.702;9.326;2022-09-12T09:31:21;20.80;90.90
7844;DHT22;3967;48.702;9.326;2022-09-12T09:33:51;20.90;90.50
7844;DHT22;3967;48.702;9.326;2022-09-12T09:39:18;21.30;89.90
7844;DHT22;3967;48.702;9.326;2022-09-12T09:44:31;21.30;88.20
7844;DHT22;3967;48.702;9.326;2022-09-12T09:46:59;21.30;87.70
7844;DHT22;3967;48.702;9.326;2022-09-12T09:49:30;21.70;87.10
7844;DHT22;3967;48.702;9.326;2022-09-12T09:51:59;21.70;85.10
7844;DHT22;3967;48.702;9.326;2022-09-12T09:54:48;21.70;84.30
7844;DHT22;3967;48.702;9.326;2022-09-12T10:05:29;22.60;81.70
7844;DHT22;3967;48.702;9.326;2022-09-12T10:07:57;22.60;78.90
7844;DHT22;3967;48.702;9.326;2022-09-12T10:10:24;22.50;77.30
7844;DHT22;3967;48.702;9.326;2022-09-12T10:13:06;22.20;76.60
7844;DHT22;3967;48.702;9.326;2022-09-12T10:15:34;22.30;78.50
7844;DHT22;3967;48.702;9.326;2022-09-12T10:18:00;22.60;79.30
7844;DHT22;3967;48.702;9.326;2022-09-12T10:22:55;23.10;76.60
7844;DHT22;3967;48.702;9.326;2022-09-12T10:25:23;23.10;78.10
7844;DHT22;3967;48.702;9.326;2022-09-12T10:27:56;22.90;74.50
7844;DHT22;3967;48.702;9.326;2022-09-12T10:30:25;22.90;76.80
7844;DHT22;3967;48.702;9.326;2022-09-12T10:33:04;22.80;75.90
7844;DHT22;3967;48.702;9.326;2022-09-12T10:35:42;22.80;72.60
7844;DHT22;3967;48.702;9.326;2022-09-12T10:38:31;22.90;72.00
7844;DHT22;3967;48.702;9.326;2022-09-12T10:41:04;23.10;73.80
7844;DHT22;3967;48.702;9.326;2022-09-12T10:48:50;23.50;74.70
7844;DHT22;3967;48.702;9.326;2022-09-12T10:53:56;23.50;72.30
7844;DHT22;3967;48.702;9.326;2022-09-12T10:56:29;23.70;72.70
7844;DHT22;3967;48.702;9.326;2022-09-12T11:01:57;23.40;72.70
7844;DHT22;3967;48.702;9.326;2022-09-12T11:12:59;23.70;70.60
7844;DHT22;3967;48.702;9.326;2022-09-12T11:15:40;23.90;69.70
7844;DHT22;3967;48.702;9.326;2022-09-12T11:35:30;24.10;67.40
7844;DHT22;3967;48.702;9.326;2022-09-12T11:38:26;24.30;67.60
7844;DHT22;3967;48.702;9.326;2022-09-12T11:41:10;24.50;65.00
7844;DHT22;3967;48.702;9.326;2022-09-12T11:44:11;24.70;64.40
7844;DHT22;3967;48.702;9.326;2022-09-12T11:46:42;24.60;66.60
7844;DHT22;3967;48.702;9.326;2022-09-12T11:49:30;24.60;65.10
7844;DHT22;3967;48.702;9.326;2022-09-12T11:54:55;24.40;66.30
7844;DHT22;3967;48.702;9.326;2022-09-12T12:00:05;24.30;63.50
7844;DHT22;3967;48.702;9.326;2022-09-12T12:02:59;24.40;63.30
7844;DHT22;3967;48.702;9.326;2022-09-12T12:08:19;24.30;62.40
7844;DHT22;3967;48.702;9.326;2022-09-12T12:10:53;24.50;61.60
7844;DHT22;3967;48.702;9.326;2022-09-12T12:16:03;24.60;58.50
7844;DHT22;3967;48.702;9.326;2022-09-12T12:18:32;24.60;58.50
7844;DHT22;3967;48.702;9.326;2022-09-12T12:21:35;24.70;58.30
7844;DHT22;3967;48.702;9.326;2022-09-12T12:34:43;24.70;57.40
7844;DHT22;3967;48.702;9.326;2022-09-12T12:48:18;24.90;54.60
7844;DHT22;3967;48.702;9.326;2022-09-12T12:50:44;25.10;55.90
7844;DHT22;3967;48.702;9.326;2022-09-12T12:53:26;24.90;55.10
7844;DHT22;3967;48.702;9.326;2022-09-12T12:55:54;24.90;54.60
7844;DHT22;3967;48.702;9.326;2022-09-12T12:58:34;25.10;54.30
7844;DHT22;3967;48.702;9.326;2022-09-12T13:03:36;25.10;54.20
7844;DHT22;3967;48.702;9.326;2022-09-12T13:06:06;25.00;55.50
7844;DHT22;3967;48.702;9.326;2022-09-12T13:08:38;24.80;55.30
7844;DHT22;3967;48.702;9.326;2022-09-12T13:11:15;24.80;56.20
7844;DHT22;3967;48.702;9.326;2022-09-12T13:14:00;24.80;56.50
7844;DHT22;3967;48.702;9.326;2022-09-12T13:16:38;24.90;56.50
7844;DHT22;3967;48.702;9.326;2022-09-12T13:19:11;25.10;54.10
7844;DHT22;3967;48.702;9.326;2022-09-12T13:22:01;25.20;54.80
7844;DHT22;3967;48.702;9.326;2022-09-12T13:24:28;25.30;55.10
7844;DHT22;3967;48.702;9.326;2022-09-12T13:26:55;25.10;54.50
7844;DHT22;3967;48.702;9.326;2022-09-12T13:29:25;25.10;54.80
7844;DHT22;3967;48.702;9.326;2022-09-12T13:32:00;25.40;53.80
7844;DHT22;3967;48.702;9.326;2022-09-12T13:34:30;25.30;54.50
7844;DHT22;3967;48.702;9.326;2022-09-12T13:42:36;25.10;54.40
7844;DHT22;3967;48.702;9.326;2022-09-12T13:48:00;25.50;52.90
7844;DHT22;3967;48.702;9.326;2022-09-12T13:50:53;25.20;55.00
7844;DHT22;3967;48.702;9.326;2022-09-12T13:53:23;25.30;54.00
7844;DHT22;3967;48.702;9.326;2022-09-12T13:55:54;25.40;53.30
7844;DHT22;3967;48.702;9.326;2022-09-12T13:58:26;25.30;54.50
7844;DHT22;3967;48.702;9.326;2022-09-12T14:01:06;25.30;55.00
7844;DHT22;3967;48.702;9.326;2022-09-12T14:06:48;25.40;54.30
7844;DHT22;3967;48.702;9.326;2022-09-12T14:09:22;25.60;54.40
7844;DHT22;3967;48.702;9.326;2022-09-12T14:11:51;25.60;53.10
7844;DHT22;3967;48.702;9.326;2022-09-12T14:14:35;25.60;53.00
7844;DHT22;3967;48.702;9.326;2022-09-12T14:17:17;25.80;53.30
7844;DHT22;3967;48.702;9.326;2022-09-12T14:19:50;25.80;53.90
7844;DHT22;3967;48.702;9.326;2022-09-12T14:22:18;25.90;53.30
7844;DHT22;3967;48.702;9.326;2022-09-12T14:24:48;25.80;53.60
7844;DHT22;3967;48.702;9.326;2022-09-12T14:27:26;25.70;54.00
7844;DHT22;3967;48.702;9.326;2022-09-12T14:30:03;25.60;52.40
7844;DHT22;3967;48.702;9.326;2022-09-12T14:32:33;25.60;53.60
7844;DHT22;3967;48.702;9.326;2022-09-12T14:37:37;25.50;53.40
7844;DHT22;3967;48.702;9.326;2022-09-12T14:40:18;25.50;53.20
7844;DHT22;3967;48.702;9.326;2022-09-12T14:42:47;25.60;53.10
7844;DHT22;3967;48.702;9.326;2022-09-12T14:45:30;25.80;53.30
7844;DHT22;3967;48.702;9.326;2022-09-12T14:47:58;26.00;53.20
7844;DHT22;3967;48.702;9.326;2022-09-12T14:50:26;26.10;54.40
7844;DHT22;3967;48.702;9.326;2022-09-12T14:53:06;26.10;54.10
7844;DHT22;3967;48.702;9.326;2022-09-12T14:55:40;26.00;54.20
7844;DHT22;3967;48.702;9.326;2022-09-12T15:01:02;25.70;53.70
7844;DHT22;3967;48.702;9.326;2022-09-12T15:06:27;25.60;53.50
7844;DHT22;3967;48.702;9.326;2022-09-12T15:08:57;25.80;54.20
7844;DHT22;3967;48.702;9.326;2022-09-12T15:11:25;25.80;54.20
7844;DHT22;3967;48.702;9.326;2022-09-12T15:13:51;25.90;53.90
7844;DHT22;3967;48.702;9.326;2022-09-12T15:16:18;25.70;53.80
7844;DHT22;3967;48.702;9.326;2022-09-12T15:18:45;25.70;53.80
7844;DHT22;3967;48.702;9.326;2022-09-12T15:21:17;25.60;53.50
7844;DHT22;3967;48.702;9.326;2022-09-12T15:23:49;25.70;54.70
7844;DHT22;3967;48.702;9.326;2022-09-12T15:26:21;25.90;53.60
7844;DHT22;3967;48.702;9.326;2022-09-12T15:28:49;25.60;53.70
7844;DHT22;3967;48.702;9.326;2022-09-12T15:31:27;25.60;54.00
7844;DHT22;3967;48.702;9.326;2022-09-12T15:33:57;25.70;53.20
7844;DHT22;3967;48.702;9.326;2022-09-12T15:36:24;25.80;53.50
7844;DHT22;3967;48.702;9.326;2022-09-12T15:38:51;25.70;54.50
7844;DHT22;3967;48.702;9.326;2022-09-12T15:41:32;25.70;53.70
7844;DHT22;3967;48.702;9.326;2022-09-12T15:43:59;25.30;53.70
7844;DHT22;3967;48.702;9.326;2022-09-12T15:46:26;25.40;53.70
7844;DHT22;3967;48.702;9.326;2022-09-12T15:48:53;25.40;54.10
7844;DHT22;3967;48.702;9.326;2022-09-12T15:51:20;25.30;54.10
7844;DHT22;3967;48.702;9.326;2022-09-12T15:53:48;25.30;54.30
7844;DHT22;3967;48.702;9.326;2022-09-12T15:56:17;25.30;53.80
7844;DHT22;3967;48.702;9.326;2022-09-12T15:58:44;25.40;54.10
7844;DHT22;3967;48.702;9.326;2022-09-12T16:01:24;25.40;54.80
7844;DHT22;3967;48.702;9.326;2022-09-12T16:03:50;25.50;53.60
7844;DHT22;3967;48.702;9.326;2022-09-12T16:06:17;25.60;52.50
7844;DHT22;3967;48.702;9.326;2022-09-12T16:08:44;25.60;53.10
7844;DHT22;3967;48.702;9.326;2022-09-12T16:11:31;25.60;53.20
7844;DHT22;3967;48.702;9.326;2022-09-12T16:13:58;25.50;53.20
7844;DHT22;3967;48.702;9.326;2022-09-12T16:16:25;25.80;53.00
7844;DHT22;3967;48.702;9.326;2022-09-12T16:18:52;25.90;52.90
7844;DHT22;3967;48.702;9.326;2022-09-12T16:21:18;25.90;53.70
7844;DHT22;3967;48.702;9.326;2022-09-12T16:23:46;25.80;54.10
7844;DHT22;3967;48.702;9.326;2022-09-12T16:26:14;25.80;54.60
7844;DHT22;3967;48.702;9.326;2022-09-12T16:28:41;25.90;55.70
7844;DHT22;3967;48.702;9.326;2022-09-12T16:31:11;25.70;54.30
7844;DHT22;3967;48.702;9.326;2022-09-12T16:33:38;25.40;54.60
7844;DHT22;3967;48.702;9.326;2022-09-12T16:36:07;25.50;56.00
7844;DHT22;3967;48.702;9.326;2022-09-12T16:38:40;25.30;56.10
7844;DHT22;3967;48.702;9.326;2022-09-12T16:41:07;25.50;56.20
7844;DHT22;3967;48.702;9.326;2022-09-12T16:43:34;25.40;55.90
7844;DHT22;3967;48.702;9.326;2022-09-12T16:46:07;25.30;55.90
7844;DHT22;3967;48.702;9.326;2022-09-12T16:48:35;25.20;56.10
7844;DHT22;3967;48.702;9.326;2022-09-12T16:51:04;25.10;55.80
7844;DHT22;3967;48.702;9.326;2022-09-12T16:53:34;25.10;55.70
7844;DHT22;3967;48.702;9.326;2022-09-12T16:56:01;25.30;56.30
7844;DHT22;3967;48.702;9.326;2022-09-12T16:58:32;25.30;55.90
7844;DHT22;3967;48.702;9.326;2022-09-12T17:01:06;25.20;56.30
7844;DHT22;3967;48.702;9.326;2022-09-12T17:03:34;25.10;56.30
7844;DHT22;3967;48.702;9.326;2022-09-12T17:06:14;25.10;57.20
7844;DHT22;3967;48.702;9.326;2022-09-12T17:08:44;25.10;57.20
7844;DHT22;3967;48.702;9.326;2022-09-12T17:11:16;25.00;57.00
7844;DHT22;3967;48.702;9.326;2022-09-12T17:13:53;24.90;57.10
7844;DHT22;3967;48.702;9.326;2022-09-12T17:16:40;24.90;57.40
7844;DHT22;3967;48.702;9.326;2022-09-12T17:19:09;24.70;57.20
7844;DHT22;3967;48.702;9.326;2022-09-12T17:21:37;24.70;57.30
7844;DHT22;3967;48.702;9.326;2022-09-12T17:24:04;24.60;57.70
7844;DHT22;3967;48.702;9.326;2022-09-12T17:26:31;24.50;58.10
7844;DHT22;3967;48.702;9.326;2022-09-12T17:28:58;24.30;58.10
7844;DHT22;3967;48.702;9.326;2022-09-12T17:31:25;24.40;58.20
7844;DHT22;3967;48.702;9.326;2022-09-12T17:33:57;24.30;58.50
7844;DHT22;3967;48.702;9.326;2022-09-12T17:36:26;24.20;58.70
7844;DHT22;3967;48.702;9.326;2022-09-12T17:38:53;24.20;58.60
7844;DHT22;3967;48.702;9.326;2022-09-12T17:41:22;24.30;58.40
7844;DHT22;3967;48.702;9.326;2022-09-12T17:43:54;24.10;58.50
7844;DHT22;3967;48.702;9.326;2022-09-12T17:46:24;24.00;58.40
7844;DHT22;3967;48.702;9.326;2022-09-12T17:48:53;24.00;58.30
7844;DHT22;3967;48.702;9.326;2022-09-12T17:51:21;23.90;58.20
7844;DHT22;3967;48.702;9.326;2022-09-12T17:54:04;23.80;58.40
7844;DHT22;3967;48.702;9.326;2022-09-12T17:56:33;23.80;58.40
7844;DHT22;3967;48.702;9.326;2022-09-12T17:59:00;23.70;58.70
7844;DHT22;3967;48.702;9.326;2022-09-12T18:01:30;23.60;58.30
7844;DHT22;3967;48.702;9.326;2022-09-12T18:04:16;23.50;58.70
7844;DHT22;3967;48.702;9.326;2022-09-12T18:06:42;23.50;58.90
7844;DHT22;3967;48.702;9.326;2022-09-12T18:09:16;23.40;59.20
7844;DHT22;3967;48.702;9.326;2022-09-12T18:11:43;23.40;60.10
7844;DHT22;3967;48.702;9.326;2022-09-12T18:14:10;23.40;60.90
7844;DHT22;3967;48.702;9.326;2022-09-12T18:16:40;23.30;61.30
7844;DHT22;3967;48.702;9.326;2022-09-12T18:19:07;23.10;61.20
7844;DHT22;3967;48.702;9.326;2022-09-12T18:21:33;23.10;60.70
7844;DHT22;3967;48.702;9.326;2022-09-12T18:24:00;23.10;60.50
7844;DHT22;3967;48.702;9.326;2022-09-12T18:26:29;22.90;60.80
7844;DHT22;3967;48.702;9.326;2022-09-12T18:28:56;22.80;61.50
7844;DHT22;3967;48.702;9.326;2022-09-12T18:31:25;22.80;61.90
7844;DHT22;3967;48.702;9.326;2022-09-12T18:33:52;22.90;62.20
7844;DHT22;3967;48.702;9.326;2022-09-12T18:36:20;22.80;63.10
7844;DHT22;3967;48.702;9.326;2022-09-12T18:38:47;22.70;63.50
7844;DHT22;3967;48.702;9.326;2022-09-12T18:41:17;22.60;63.80
7844;DHT22;3967;48.702;9.326;2022-09-12T18:43:44;22.60;63.80
7844;DHT22;3967;48.702;9.326;2022-09-12T18:46:17;22.60;64.10
7844;DHT22;3967;48.702;9.326;2022-09-12T18:48:45;22.50;64.70
7844;DHT22;3967;48.702;9.326;2022-09-12T18:51:17;22.40;65.20
7844;DHT22;3967;48.702;9.326;2022-09-12T18:53:49;22.40;65.60
7844;DHT22;3967;48.702;9.326;2022-09-12T18:56:17;22.30;65.60
7844;DHT22;3967;48.702;9.326;2022-09-12T18:58:49;22.20;66.00
7844;DHT22;3967;48.702;9.326;2022-09-12T19:01:19;22.10;66.90
7844;DHT22;3967;48.702;9.326;2022-09-12T19:03:46;22.10;67.10
7844;DHT22;3967;48.702;9.326;2022-09-12T19:06:22;21.90;66.90
7844;DHT22;3967;48.702;9.326;2022-09-12T19:08:50;21.90;68.10
7844;DHT22;3967;48.702;9.326;2022-09-12T19:11:18;21.90;68.40
7844;DHT22;3967;48.702;9.326;2022-09-12T19:13:48;21.90;68.50
7844;DHT22;3967;48.702;9.326;2022-09-12T19:16:18;21.80;68.50
7844;DHT22;3967;48.702;9.326;2022-09-12T19:18:45;21.80;68.80
7844;DHT22;3967;48.702;9.326;2022-09-12T19:24:09;21.60;70.20
7844;DHT22;3967;48.702;9.326;2022-09-12T19:26:37;21.50;70.80
7844;DHT22;3967;48.702;9.326;2022-09-12T19:29:05;21.50;71.00
7844;DHT22;3967;48.702;9.326;2022-09-12T19:31:32;21.50;71.20